Time;durP1;ratioP1;P1;durP2;ratioP2;P2;SDS_P1;SDS_P2;PMS_P1;PMS_P2;Temp;Humidity;BMP_temperature;BMP_pressure;BME280_temperature;BME280_humidity;BME280_pressure;Samples;Min_cycle;Max_cycle;Signal;HPM_P1;HPM_P2
2022/06/10 00:00:40;;;;;;;1.52;1.25;;;;;;;;;;5132915;27;20202;-60
2022/06/10 00:03:08;;;;;;;1.33;1.23;;;;;;;;;;5125153;27;20263;-60
2022/06/10 00:05:37;;;;;;;1.30;1.20;;;;;;;;;;5124309;27;20205;-61
2022/06/10 00:08:06;;;;;;;1.50;1.40;;;;;;;;;;5136407;27;20208;-59
2022/06/10 00:10:33;;;;;;;3.88;1.75;;;;;;;;;;5138382;28;20199;-59
2022/06/10 00:13:00;;;;;;;1.42;1.33;;;;;;;;;;5139047;28;20195;-59
2022/06/10 00:15:28;;;;;;;1.73;1.30;;;;;;;;;;5129043;28;20195;-60
2022/06/10 00:17:57;;;;;;;1.63;1.42;;;;;;;;;;5118298;28;20203;-60
2022/06/10 00:20:26;;;;;;;1.55;1.45;;;;;;;;;;5117921;28;20302;-59
2022/06/10 00:22:54;;;;;;;2.20;1.70;;;;;;;;;;5117762;28;20195;-60
2022/06/10 00:25:21;;;;;;;2.17;1.50;;;;;;;;;;5127083;28;20221;-59
2022/06/10 00:27:49;;;;;;;1.50;1.40;;;;;;;;;;5138494;28;20304;-60
2022/06/10 00:30:17;;;;;;;1.60;1.50;;;;;;;;;;5120253;28;20206;-60
2022/06/10 00:32:45;;;;;;;1.35;1.25;;;;;;;;;;5118505;28;20207;-60
2022/06/10 00:35:14;;;;;;;1.73;1.20;;;;;;;;;;5130635;28;20205;-60
2022/06/10 00:37:42;;;;;;;1.65;1.55;;;;;;;;;;5138771;28;20271;-60
2022/06/10 00:40:11;;;;;;;1.40;1.30;;;;;;;;;;5138346;28;20206;-60
2022/06/10 00:42:39;;;;;;;2.53;1.10;;;;;;;;;;5102893;28;20629;-60
2022/06/10 00:45:07;;;;;;;1.90;1.30;;;;;;;;;;5133503;28;20261;-59
2022/06/10 00:47:36;;;;;;;1.77;1.30;;;;;;;;;;5138652;28;20202;-60
2022/06/10 00:50:17;;;;;;;1.48;1.38;;;;;;;;;;5137032;27;20198;-60
2022/06/10 00:52:49;;;;;;;2.00;1.40;;;;;;;;;;5138734;27;20198;-59
2022/06/10 00:55:17;;;;;;;1.42;1.33;;;;;;;;;;5137050;27;20194;-59
2022/06/10 00:57:47;;;;;;;1.52;1.42;;;;;;;;;;5137609;28;20198;-59
2022/06/10 01:00:16;;;;;;;1.40;1.30;;;;;;;;;;5137820;28;20198;-59
2022/06/10 01:02:44;;;;;;;1.35;1.25;;;;;;;;;;5138262;28;20202;-60
2022/06/10 01:05:13;;;;;;;1.50;1.30;;;;;;;;;;5138638;27;20229;-60
2022/06/10 01:07:44;;;;;;;1.67;1.08;;;;;;;;;;5140416;27;20251;-60
2022/06/10 01:10:16;;;;;;;1.13;1.13;;;;;;;;;;5140991;27;20486;-60
2022/06/10 01:12:55;;;;;;;1.45;1.35;;;;;;;;;;5141560;27;20199;-60
2022/06/10 01:15:28;;;;;;;1.48;1.38;;;;;;;;;;5141306;27;20194;-59
2022/06/10 01:18:08;;;;;;;1.10;1.10;;;;;;;;;;5141120;27;20494;-59
2022/06/10 01:20:43;;;;;;;1.33;1.23;;;;;;;;;;5140830;27;20212;-60
2022/06/10 01:23:30;;;;;;;1.40;1.30;;;;;;;;;;5141529;27;20232;-59
2022/06/10 01:26:15;;;;;;;1.30;1.20;;;;;;;;;;5141057;27;20194;-59
2022/06/10 01:29:04;;;;;;;1.30;1.20;;;;;;;;;;5141013;27;20208;-60
2022/06/10 01:31:36;;;;;;;1.58;1.10;;;;;;;;;;5141713;27;20206;-59
2022/06/10 01:34:09;;;;;;;2.25;1.25;;;;;;;;;;5140848;27;20221;-60
2022/06/10 01:36:41;;;;;;;1.38;1.27;;;;;;;;;;5141766;27;20202;-59
2022/06/10 01:39:11;;;;;;;1.20;1.10;;;;;;;;;;5140629;27;20194;-60
2022/06/10 01:41:41;;;;;;;1.52;1.42;;;;;;;;;;5141677;27;20248;-60
2022/06/10 01:44:15;;;;;;;1.00;1.00;;;;;;;;;;5138217;27;20240;-60
2022/06/10 01:46:48;;;;;;;1.77;1.20;;;;;;;;;;5141224;27;20231;-59
2022/06/10 01:49:19;;;;;;;1.40;1.30;;;;;;;;;;5140449;27;20600;-59
2022/06/10 01:51:51;;;;;;;1.30;1.20;;;;;;;;;;5141345;27;20228;-59
2022/06/10 01:54:22;;;;;;;1.27;1.17;;;;;;;;;;5139541;27;20218;-59
2022/06/10 01:56:51;;;;;;;1.13;1.08;;;;;;;;;;5140249;27;20582;-59
2022/06/10 01:59:22;;;;;;;1.10;1.10;;;;;;;;;;5140740;27;20194;-59
2022/06/10 02:01:54;;;;;;;1.25;1.08;;;;;;;;;;5140370;27;20198;-60
2022/06/10 02:04:24;;;;;;;1.30;1.20;;;;;;;;;;5139961;27;20214;-60
2022/06/10 02:06:54;;;;;;;1.20;0.95;;;;;;;;;;5141075;27;20207;-60
2022/06/10 02:09:24;;;;;;;1.70;1.30;;;;;;;;;;5140484;27;20208;-60
2022/06/10 02:12:03;;;;;;;1.30;1.20;;;;;;;;;;5138811;27;20539;-60
2022/06/10 02:14:32;;;;;;;1.40;1.17;;;;;;;;;;5140178;27;20259;-60
2022/06/10 02:17:03;;;;;;;1.20;1.10;;;;;;;;;;5138826;27;20566;-60
2022/06/10 02:19:32;;;;;;;1.27;1.20;;;;;;;;;;5140085;27;20198;-60
2022/06/10 02:22:01;;;;;;;1.10;1.10;;;;;;;;;;5140393;27;20198;-60
2022/06/10 02:24:33;;;;;;;1.02;1.00;;;;;;;;;;5139658;27;20228;-60
2022/06/10 02:27:03;;;;;;;1.20;1.00;;;;;;;;;;5140136;27;20205;-59
2022/06/10 02:29:32;;;;;;;1.48;1.10;;;;;;;;;;5139148;27;20198;-59
2022/06/10 02:32:00;;;;;;;1.00;0.90;;;;;;;;;;5139376;27;20208;-60
2022/06/10 02:34:30;;;;;;;0.98;0.98;;;;;;;;;;5138669;27;20510;-60
2022/06/10 02:37:00;;;;;;;1.27;1.17;;;;;;;;;;5140049;27;20289;-60
2022/06/10 02:39:32;;;;;;;1.13;1.10;;;;;;;;;;5139022;27;20311;-60
2022/06/10 02:42:02;;;;;;;1.35;0.90;;;;;;;;;;5138727;27;20597;-60
2022/06/10 02:44:32;;;;;;;1.00;1.00;;;;;;;;;;5137997;27;20218;-60
2022/06/10 02:47:03;;;;;;;1.33;1.23;;;;;;;;;;5137599;27;20198;-60
2022/06/10 02:49:32;;;;;;;1.25;1.15;;;;;;;;;;5139190;27;20216;-60
2022/06/10 02:51:59;;;;;;;0.93;0.93;;;;;;;;;;5138579;27;20205;-60
2022/06/10 02:54:28;;;;;;;1.10;1.00;;;;;;;;;;5140495;27;20492;-59
2022/06/10 02:56:56;;;;;;;0.90;0.90;;;;;;;;;;5140325;27;20442;-60
2022/06/10 03:02:16;;;;;;;1.77;1.33;;;;;;;;;;5139155;27;20638;-60
2022/06/10 03:04:49;;;;;;;0.90;0.90;;;;;;;;;;5139552;27;20234;-60
2022/06/10 03:07:24;;;;;;;1.33;1.23;;;;;;;;;;5138051;27;20198;-60
2022/06/10 03:09:58;;;;;;;1.25;1.20;;;;;;;;;;5135664;27;20204;-61
2022/06/10 03:12:29;;;;;;;1.05;1.05;;;;;;;;;;5138718;27;20297;-61
2022/06/10 03:15:04;;;;;;;1.30;1.20;;;;;;;;;;5155156;27;20483;-60
2022/06/10 03:17:37;;;;;;;1.00;1.00;;;;;;;;;;5157266;27;20208;-61
2022/06/10 03:20:11;;;;;;;1.00;1.00;;;;;;;;;;5139552;27;20202;-60
2022/06/10 03:22:53;;;;;;;1.27;1.17;;;;;;;;;;5139891;27;20251;-60
2022/06/10 03:25:22;;;;;;;0.95;0.90;;;;;;;;;;5138930;27;20230;-59
2022/06/10 03:27:52;;;;;;;1.00;1.00;;;;;;;;;;5139685;27;20300;-59
2022/06/10 03:30:22;;;;;;;0.80;0.80;;;;;;;;;;5139424;27;20206;-59
2022/06/10 03:32:53;;;;;;;0.90;0.90;;;;;;;;;;5139047;27;20577;-60
2022/06/10 03:35:24;;;;;;;1.00;1.00;;;;;;;;;;5138663;27;20221;-59
2022/06/10 03:37:52;;;;;;;1.45;1.00;;;;;;;;;;5139166;27;20238;-59
2022/06/10 03:40:21;;;;;;;0.90;0.90;;;;;;;;;;5139238;27;20214;-60
2022/06/10 03:42:50;;;;;;;0.90;0.90;;;;;;;;;;5139245;27;20237;-59
2022/06/10 03:45:18;;;;;;;0.90;0.85;;;;;;;;;;5139502;27;20218;-60
2022/06/10 03:47:46;;;;;;;0.90;0.90;;;;;;;;;;5137673;27;20202;-60
2022/06/10 03:50:15;;;;;;;0.90;0.90;;;;;;;;;;5138207;27;20584;-60
2022/06/10 03:52:45;;;;;;;0.80;0.80;;;;;;;;;;5137692;27;20198;-60
2022/06/10 03:55:17;;;;;;;0.90;0.90;;;;;;;;;;5137610;27;20243;-59
2022/06/10 03:57:45;;;;;;;1.02;1.02;;;;;;;;;;5136770;27;20205;-60
2022/06/10 04:00:15;;;;;;;1.08;1.08;;;;;;;;;;5138309;27;20194;-60
2022/06/10 04:02:42;;;;;;;0.88;0.88;;;;;;;;;;5136188;27;20202;-60
2022/06/10 04:05:10;;;;;;;1.13;1.02;;;;;;;;;;5137752;27;20237;-60
2022/06/10 04:07:38;;;;;;;0.82;0.82;;;;;;;;;;5137509;27;20194;-60
2022/06/10 04:10:09;;;;;;;1.00;1.00;;;;;;;;;;5137634;27;20194;-60
2022/06/10 04:12:36;;;;;;;0.90;0.90;;;;;;;;;;5138007;28;20596;-60
2022/06/10 04:15:04;;;;;;;0.90;0.90;;;;;;;;;;5138165;27;20220;-60
2022/06/10 04:17:32;;;;;;;1.10;1.00;;;;;;;;;;5138326;28;20202;-60
2022/06/10 04:20:00;;;;;;;1.08;1.00;;;;;;;;;;5137758;28;20198;-60
2022/06/10 04:22:28;;;;;;;1.00;1.00;;;;;;;;;;5138000;27;20202;-60
2022/06/10 04:24:55;;;;;;;1.00;1.00;;;;;;;;;;5134582;28;20218;-60
2022/06/10 04:27:24;;;;;;;1.13;1.10;;;;;;;;;;5135980;28;20213;-59
2022/06/10 04:29:51;;;;;;;1.00;1.00;;;;;;;;;;5136742;27;20462;-60
2022/06/10 04:32:19;;;;;;;1.05;1.05;;;;;;;;;;5136900;27;20214;-60
2022/06/10 04:34:47;;;;;;;1.15;1.00;;;;;;;;;;5136260;28;20210;-59
2022/06/10 04:37:14;;;;;;;1.00;1.00;;;;;;;;;;5136797;27;20210;-59
2022/06/10 04:39:41;;;;;;;0.90;0.90;;;;;;;;;;5136837;27;20490;-61
2022/06/10 04:42:09;;;;;;;0.90;0.90;;;;;;;;;;5140213;27;20242;-60
2022/06/10 04:44:38;;;;;;;0.90;0.90;;;;;;;;;;5139628;27;20259;-60
2022/06/10 04:47:07;;;;;;;1.13;1.00;;;;;;;;;;5140812;27;20514;-59
2022/06/10 04:49:35;;;;;;;1.00;1.00;;;;;;;;;;5138881;27;20601;-59
2022/06/10 04:52:02;;;;;;;1.00;1.00;;;;;;;;;;5140342;27;20206;-61
2022/06/10 04:54:30;;;;;;;1.00;1.00;;;;;;;;;;5139198;27;20201;-59
2022/06/10 04:56:57;;;;;;;1.00;1.00;;;;;;;;;;5139331;27;20194;-61
2022/06/10 04:59:24;;;;;;;1.17;1.10;;;;;;;;;;5131465;27;20198;-61
2022/06/10 05:01:53;;;;;;;0.90;0.90;;;;;;;;;;5132778;27;20202;-61
2022/06/10 05:04:22;;;;;;;0.90;0.90;;;;;;;;;;5129969;27;20195;-59
2022/06/10 05:06:50;;;;;;;0.88;0.88;;;;;;;;;;5139271;27;20545;-60
2022/06/10 05:09:17;;;;;;;0.90;0.90;;;;;;;;;;5138467;27;20198;-60
2022/06/10 05:11:45;;;;;;;0.80;0.80;;;;;;;;;;5133261;27;20195;-60
2022/06/10 05:14:13;;;;;;;1.95;0.90;;;;;;;;;;5128745;27;20631;-59
2022/06/10 05:16:41;;;;;;;0.80;0.80;;;;;;;;;;5138768;27;20198;-60
2022/06/10 05:19:09;;;;;;;0.80;0.80;;;;;;;;;;5138599;27;20190;-60
2022/06/10 05:21:37;;;;;;;0.90;0.90;;;;;;;;;;5139462;27;20213;-60
2022/06/10 05:24:05;;;;;;;0.95;0.95;;;;;;;;;;5136693;27;20589;-59
2022/06/10 05:26:33;;;;;;;0.90;0.90;;;;;;;;;;5139857;27;20625;-59
2022/06/10 05:29:00;;;;;;;0.90;0.90;;;;;;;;;;5137812;27;20209;-60
2022/06/10 05:31:28;;;;;;;1.10;1.00;;;;;;;;;;5121345;27;20209;-60
2022/06/10 05:36:41;;;;;;;1.40;1.00;;;;;;;;;;5129397;27;20223;-60
2022/06/10 05:39:09;;;;;;;1.27;0.90;;;;;;;;;;5126892;27;20618;-60
2022/06/10 05:44:22;;;;;;;0.93;0.93;;;;;;;;;;5117308;28;20502;-60
2022/06/10 05:46:49;;;;;;;1.00;0.90;;;;;;;;;;5114509;28;20280;-60
2022/06/10 05:49:17;;;;;;;1.55;1.02;;;;;;;;;;5116997;28;20277;-59
2022/06/10 05:51:46;;;;;;;1.20;1.10;;;;;;;;;;5116233;28;20218;-59
2022/06/10 05:54:13;;;;;;;1.35;1.25;;;;;;;;;;5116905;28;20198;-60
2022/06/10 05:56:41;;;;;;;1.30;1.20;;;;;;;;;;5117249;28;20195;-60
2022/06/10 05:59:09;;;;;;;1.30;0.98;;;;;;;;;;5115702;28;20207;-60
2022/06/10 06:01:36;;;;;;;1.55;1.10;;;;;;;;;;5116605;28;20198;-59
2022/06/10 06:04:04;;;;;;;1.40;1.30;;;;;;;;;;5116885;28;20195;-60
2022/06/10 06:06:31;;;;;;;1.00;1.00;;;;;;;;;;5115247;28;20223;-60
2022/06/10 06:09:00;;;;;;;1.27;1.17;;;;;;;;;;5116982;28;20199;-60
2022/06/10 06:11:27;;;;;;;1.60;1.17;;;;;;;;;;5117472;28;20240;-60
2022/06/10 06:13:55;;;;;;;1.65;1.27;;;;;;;;;;5116106;28;20199;-60
2022/06/10 06:16:22;;;;;;;1.85;1.30;;;;;;;;;;5116229;28;20562;-60
2022/06/10 06:18:50;;;;;;;1.60;1.10;;;;;;;;;;5117199;28;20757;-60
2022/06/10 06:21:18;;;;;;;1.30;1.20;;;;;;;;;;5116276;28;20203;-60
2022/06/10 06:23:45;;;;;;;1.38;1.27;;;;;;;;;;5115660;28;20401;-60
2022/06/10 06:26:16;;;;;;;1.55;1.23;;;;;;;;;;5115509;28;20229;-61
2022/06/10 06:28:43;;;;;;;1.48;1.38;;;;;;;;;;5115830;28;20231;-61
2022/06/10 06:31:11;;;;;;;1.20;1.10;;;;;;;;;;5116240;28;20484;-60
2022/06/10 06:33:41;;;;;;;1.40;1.30;;;;;;;;;;5111916;28;20268;-60
2022/06/10 06:36:09;;;;;;;1.10;1.10;;;;;;;;;;5113942;28;20628;-60
2022/06/10 06:38:37;;;;;;;1.17;1.08;;;;;;;;;;5113515;28;20206;-61
2022/06/10 06:41:04;;;;;;;1.40;1.30;;;;;;;;;;5115924;28;20199;-61
2022/06/10 06:43:34;;;;;;;1.83;1.30;;;;;;;;;;5111473;27;20325;-60
2022/06/10 06:46:02;;;;;;;1.40;1.30;;;;;;;;;;5134901;27;20220;-60
2022/06/10 06:48:29;;;;;;;2.05;1.30;;;;;;;;;;5126819;27;20203;-60
2022/06/10 06:50:57;;;;;;;1.60;1.35;;;;;;;;;;5129372;27;20198;-60
2022/06/10 06:53:24;;;;;;;1.23;1.10;;;;;;;;;;5135069;27;20194;-60
2022/06/10 06:55:52;;;;;;;1.35;1.20;;;;;;;;;;5135558;27;20194;-60
2022/06/10 06:58:20;;;;;;;1.33;1.23;;;;;;;;;;5134355;27;20225;-60
2022/06/10 07:00:49;;;;;;;1.88;1.38;;;;;;;;;;5135406;27;20548;-60
2022/06/10 07:03:16;;;;;;;1.90;1.30;;;;;;;;;;5134697;27;21265;-60
2022/06/10 07:05:44;;;;;;;1.63;1.42;;;;;;;;;;5114779;28;20233;-60
2022/06/10 07:08:12;;;;;;;1.98;1.55;;;;;;;;;;5122383;27;20203;-60
2022/06/10 07:10:39;;;;;;;1.30;1.20;;;;;;;;;;5116039;28;20260;-60
2022/06/10 07:13:07;;;;;;;1.60;1.50;;;;;;;;;;5120659;27;20216;-60
2022/06/10 07:15:37;;;;;;;1.40;1.30;;;;;;;;;;5135466;27;20190;-60
2022/06/10 07:18:06;;;;;;;1.40;1.30;;;;;;;;;;5137025;27;20245;-60
2022/06/10 07:20:34;;;;;;;1.80;1.52;;;;;;;;;;5130123;27;20494;-59
2022/06/10 07:23:02;;;;;;;2.25;1.45;;;;;;;;;;5126182;27;20298;-59
2022/06/10 07:25:31;;;;;;;2.13;1.75;;;;;;;;;;5113671;28;20635;-59
2022/06/10 07:27:59;;;;;;;1.50;1.40;;;;;;;;;;5114463;28;20194;-60
2022/06/10 07:30:27;;;;;;;1.60;1.50;;;;;;;;;;5114986;28;20475;-59
2022/06/10 07:32:54;;;;;;;2.05;1.50;;;;;;;;;;5114571;27;20202;-59
2022/06/10 07:35:23;;;;;;;1.50;1.40;;;;;;;;;;5134035;27;20284;-60
2022/06/10 07:37:51;;;;;;;1.58;1.33;;;;;;;;;;5127766;27;20199;-60
2022/06/10 07:43:01;;;;;;;1.60;1.40;;;;;;;;;;5104812;27;20568;-60
2022/06/10 07:45:29;;;;;;;1.60;1.35;;;;;;;;;;5135258;27;20215;-60
2022/06/10 07:50:32;;;;;;;1.65;1.42;;;;;;;;;;5083185;28;20430;-60
2022/06/10 07:52:59;;;;;;;1.58;1.45;;;;;;;;;;5094845;28;20196;-60
2022/06/10 07:55:27;;;;;;;1.38;1.23;;;;;;;;;;5094522;28;20207;-60
2022/06/10 07:57:55;;;;;;;1.75;1.30;;;;;;;;;;5094858;28;20571;-60
2022/06/10 08:00:25;;;;;;;1.70;1.30;;;;;;;;;;5094355;28;20200;-60
2022/06/10 08:02:52;;;;;;;1.95;1.30;;;;;;;;;;5094294;28;20204;-60
2022/06/10 08:05:20;;;;;;;1.92;1.30;;;;;;;;;;5093672;28;20211;-59
2022/06/10 08:07:48;;;;;;;1.70;1.35;;;;;;;;;;5094448;28;20259;-59
2022/06/10 08:10:20;;;;;;;1.27;1.17;;;;;;;;;;5094244;28;20200;-59
2022/06/10 08:12:47;;;;;;;1.45;1.20;;;;;;;;;;5094086;28;20218;-59
2022/06/10 08:15:15;;;;;;;1.20;1.10;;;;;;;;;;5073488;28;20222;-59
2022/06/10 08:17:42;;;;;;;1.60;1.38;;;;;;;;;;5087002;28;20198;-60
2022/06/10 08:20:10;;;;;;;1.25;1.15;;;;;;;;;;5093783;28;20196;-59
2022/06/10 08:22:37;;;;;;;2.05;1.40;;;;;;;;;;5094635;28;20196;-59
2022/06/10 08:25:07;;;;;;;1.30;1.20;;;;;;;;;;5094108;28;20211;-60
2022/06/10 08:27:35;;;;;;;2.03;1.27;;;;;;;;;;5094239;28;20211;-59
2022/06/10 08:30:04;;;;;;;1.38;0.90;;;;;;;;;;5093889;28;20594;-59
2022/06/10 08:32:31;;;;;;;1.40;1.20;;;;;;;;;;5093723;28;20208;-59
2022/06/10 08:34:59;;;;;;;2.65;1.60;;;;;;;;;;5093339;28;20192;-59
2022/06/10 08:37:26;;;;;;;2.25;1.00;;;;;;;;;;5094608;28;20200;-59
2022/06/10 08:39:54;;;;;;;1.40;1.20;;;;;;;;;;5093921;28;20203;-59
2022/06/10 08:42:27;;;;;;;1.48;1.35;;;;;;;;;;5093088;28;20192;-59
2022/06/10 08:44:55;;;;;;;1.48;1.38;;;;;;;;;;5092954;28;20607;-60
2022/06/10 08:47:29;;;;;;;1.33;1.23;;;;;;;;;;5093138;28;20223;-59
2022/06/10 08:50:07;;;;;;;2.05;1.33;;;;;;;;;;5093008;28;20262;-59
2022/06/10 08:52:39;;;;;;;1.90;1.38;;;;;;;;;;5093539;28;20485;-60
2022/06/10 08:55:17;;;;;;;1.50;1.40;;;;;;;;;;5093266;28;20229;-60
2022/06/10 08:57:47;;;;;;;1.65;1.55;;;;;;;;;;5094302;28;20249;-60
2022/06/10 09:00:17;;;;;;;2.45;1.40;;;;;;;;;;5074545;28;20227;-59
2022/06/10 09:02:46;;;;;;;1.58;1.23;;;;;;;;;;5074031;28;20212;-59
2022/06/10 09:05:16;;;;;;;1.70;1.40;;;;;;;;;;5077246;28;20502;-60
2022/06/10 09:07:47;;;;;;;1.73;1.35;;;;;;;;;;5093639;28;20228;-60
2022/06/10 09:10:19;;;;;;;1.88;1.00;;;;;;;;;;5093123;28;20287;-60
2022/06/10 09:13:00;;;;;;;1.30;1.20;;;;;;;;;;5093240;28;20204;-59
2022/06/10 09:15:29;;;;;;;1.67;1.58;;;;;;;;;;5093865;28;20231;-60
2022/06/10 09:18:00;;;;;;;1.65;1.35;;;;;;;;;;5094016;28;20204;-59
2022/06/10 09:20:29;;;;;;;1.20;1.10;;;;;;;;;;5093258;28;20495;-59
2022/06/10 09:22:58;;;;;;;1.50;1.30;;;;;;;;;;5093225;28;20223;-60
2022/06/10 09:25:29;;;;;;;1.20;1.10;;;;;;;;;;5093990;28;20268;-59
2022/06/10 09:27:59;;;;;;;1.50;1.40;;;;;;;;;;5096257;28;20211;-59
2022/06/10 09:30:30;;;;;;;1.30;1.20;;;;;;;;;;5096487;28;20758;-60
2022/06/10 09:32:59;;;;;;;1.40;1.30;;;;;;;;;;5096165;28;20230;-60
2022/06/10 09:35:31;;;;;;;1.88;1.40;;;;;;;;;;5097223;28;20310;-59
2022/06/10 09:38:01;;;;;;;1.67;1.27;;;;;;;;;;5097307;28;20196;-59
2022/06/10 09:40:36;;;;;;;1.50;1.30;;;;;;;;;;5089003;28;20206;-59
2022/06/10 09:43:10;;;;;;;1.35;1.25;;;;;;;;;;5097356;28;20227;-59
2022/06/10 09:45:41;;;;;;;1.30;1.20;;;;;;;;;;5097155;28;20200;-59
2022/06/10 09:48:22;;;;;;;1.48;1.38;;;;;;;;;;5096397;28;20235;-59
2022/06/10 09:50:53;;;;;;;1.17;1.00;;;;;;;;;;5096619;28;20196;-59
2022/06/10 09:53:31;;;;;;;1.70;1.30;;;;;;;;;;5096228;28;20205;-59
2022/06/10 09:56:07;;;;;;;1.17;1.08;;;;;;;;;;5096546;28;20204;-60
2022/06/10 09:58:51;;;;;;;1.38;1.27;;;;;;;;;;5095724;28;20217;-59
2022/06/10 10:01:23;;;;;;;1.63;1.27;;;;;;;;;;5096647;28;20242;-59
2022/06/10 10:04:00;;;;;;;1.35;1.10;;;;;;;;;;5096202;28;20192;-59
2022/06/10 10:06:33;;;;;;;1.35;1.10;;;;;;;;;;5096740;28;20527;-59
2022/06/10 10:09:04;;;;;;;1.50;1.40;;;;;;;;;;5095945;28;20207;-59
2022/06/10 10:11:37;;;;;;;1.33;1.23;;;;;;;;;;5096898;28;20212;-59
2022/06/10 10:14:10;;;;;;;1.30;1.20;;;;;;;;;;5096163;28;20221;-59
2022/06/10 10:16:43;;;;;;;2.15;1.13;;;;;;;;;;5095572;28;20199;-59
2022/06/10 10:19:25;;;;;;;1.27;1.17;;;;;;;;;;5095551;28;20774;-59
2022/06/10 10:21:56;;;;;;;1.30;1.20;;;;;;;;;;5073746;28;20204;-59
2022/06/10 10:24:25;;;;;;;1.10;1.00;;;;;;;;;;5091092;28;20605;-59
2022/06/10 10:26:53;;;;;;;1.35;1.25;;;;;;;;;;5094997;28;20273;-59
2022/06/10 10:29:24;;;;;;;1.30;1.20;;;;;;;;;;5094635;28;20227;-59
2022/06/10 10:31:54;;;;;;;1.40;1.30;;;;;;;;;;5095359;28;20196;-59
2022/06/10 10:34:22;;;;;;;1.17;1.10;;;;;;;;;;5095276;28;20215;-60
2022/06/10 10:36:52;;;;;;;1.52;1.25;;;;;;;;;;5093633;28;20196;-60
2022/06/10 10:39:26;;;;;;;1.35;1.25;;;;;;;;;;5095374;28;20211;-60
2022/06/10 10:41:55;;;;;;;1.48;1.23;;;;;;;;;;5095715;28;20309;-60
2022/06/10 10:44:26;;;;;;;1.23;1.10;;;;;;;;;;5094247;28;20274;-60
2022/06/10 10:47:01;;;;;;;1.40;1.30;;;;;;;;;;5093548;28;20225;-60
2022/06/10 10:49:30;;;;;;;1.17;1.08;;;;;;;;;;5094244;28;20231;-60
2022/06/10 10:51:58;;;;;;;1.30;1.20;;;;;;;;;;5094905;28;20783;-60
2022/06/10 10:54:29;;;;;;;1.30;1.20;;;;;;;;;;5094067;28;20206;-60
2022/06/10 10:56:59;;;;;;;1.23;1.13;;;;;;;;;;5093525;28;20195;-60
2022/06/10 10:59:31;;;;;;;1.10;1.10;;;;;;;;;;5086211;28;20195;-60
2022/06/10 11:02:00;;;;;;;2.47;1.30;;;;;;;;;;5095137;28;20606;-60
2022/06/10 11:04:28;;;;;;;1.73;1.20;;;;;;;;;;5094477;28;20520;-59
2022/06/10 11:07:00;;;;;;;1.35;1.10;;;;;;;;;;5095267;28;20220;-59
2022/06/10 11:09:27;;;;;;;0.90;0.90;;;;;;;;;;5086419;28;20203;-60
2022/06/10 11:11:56;;;;;;;1.30;1.20;;;;;;;;;;5094399;28;20199;-65
2022/06/10 11:14:26;;;;;;;4.43;1.30;;;;;;;;;;5092289;28;21197;-59
2022/06/10 11:17:11;;;;;;;4.57;1.48;;;;;;;;;;5092052;28;20633;-59
2022/06/10 11:19:51;;;;;;;4.25;1.55;;;;;;;;;;5093566;28;20222;-59
2022/06/10 11:22:20;;;;;;;4.72;1.52;;;;;;;;;;5093105;28;20290;-59
2022/06/10 11:24:50;;;;;;;3.80;1.40;;;;;;;;;;5091826;28;20208;-59
2022/06/10 11:27:21;;;;;;;2.67;1.20;;;;;;;;;;5092530;28;20224;-59
2022/06/10 11:29:58;;;;;;;1.33;1.02;;;;;;;;;;5091028;28;20199;-59
2022/06/10 11:32:28;;;;;;;2.78;1.40;;;;;;;;;;5092185;28;20207;-59
2022/06/10 11:34:58;;;;;;;1.30;1.20;;;;;;;;;;5091832;28;20582;-59
2022/06/10 11:37:29;;;;;;;4.32;1.42;;;;;;;;;;5093554;28;20200;-58
2022/06/10 11:40:03;;;;;;;1.88;1.10;;;;;;;;;;5093843;28;20262;-58
2022/06/10 11:42:32;;;;;;;2.63;1.50;;;;;;;;;;5093772;28;20231;-58
2022/06/10 11:45:04;;;;;;;3.05;1.30;;;;;;;;;;5073777;28;20200;-58
2022/06/10 11:47:36;;;;;;;2.90;1.50;;;;;;;;;;5092852;28;20630;-58
2022/06/10 11:50:06;;;;;;;1.65;1.27;;;;;;;;;;5091868;28;20245;-58
2022/06/10 11:52:35;;;;;;;1.85;1.05;;;;;;;;;;5093592;28;20203;-58
2022/06/10 11:55:06;;;;;;;1.80;1.10;;;;;;;;;;5093624;28;20575;-59
2022/06/10 12:00:27;;;;;;;3.38;1.10;;;;;;;;;;5092724;28;20191;-58
2022/06/10 12:03:01;;;;;;;1.10;1.00;;;;;;;;;;5092439;28;20219;-59
2022/06/10 12:05:33;;;;;;;1.90;1.05;;;;;;;;;;5085533;28;20284;-59
2022/06/10 12:08:04;;;;;;;1.35;1.15;;;;;;;;;;5092577;28;20220;-59
2022/06/10 12:10:45;;;;;;;1.75;1.00;;;;;;;;;;5092586;28;20730;-58
2022/06/10 12:13:13;;;;;;;1.95;1.20;;;;;;;;;;5092455;28;20200;-58
2022/06/10 12:15:45;;;;;;;1.35;1.25;;;;;;;;;;5091923;28;20313;-58
2022/06/10 12:18:15;;;;;;;1.38;0.90;;;;;;;;;;5093321;28;20301;-58
2022/06/10 12:20:44;;;;;;;2.40;1.33;;;;;;;;;;5092516;28;20195;-58
2022/06/10 12:23:13;;;;;;;2.47;1.08;;;;;;;;;;5092752;28;20200;-58
2022/06/10 12:25:51;;;;;;;0.98;0.98;;;;;;;;;;5092243;28;20207;-58
2022/06/10 12:28:26;;;;;;;1.77;1.17;;;;;;;;;;5091724;28;20223;-59
2022/06/10 12:31:00;;;;;;;1.10;1.00;;;;;;;;;;5092292;28;20574;-59
2022/06/10 12:33:33;;;;;;;1.27;1.00;;;;;;;;;;5085602;28;20206;-58
2022/06/10 12:36:01;;;;;;;2.05;0.95;;;;;;;;;;5093394;28;20230;-58
2022/06/10 12:38:32;;;;;;;1.00;1.00;;;;;;;;;;5093288;28;20196;-58
2022/06/10 12:41:01;;;;;;;1.10;1.00;;;;;;;;;;5092169;28;20211;-58
2022/06/10 12:43:31;;;;;;;1.13;1.05;;;;;;;;;;5092702;28;20691;-58
2022/06/10 12:46:00;;;;;;;0.90;0.90;;;;;;;;;;5091654;28;20228;-58
2022/06/10 12:48:29;;;;;;;1.10;1.00;;;;;;;;;;5092658;28;20598;-58
2022/06/10 12:51:00;;;;;;;1.98;1.10;;;;;;;;;;5092310;28;20196;-58
2022/06/10 12:53:36;;;;;;;1.27;0.90;;;;;;;;;;5092295;28;20202;-58
2022/06/10 12:56:17;;;;;;;1.45;0.95;;;;;;;;;;5092662;28;20203;-59
2022/06/10 12:58:46;;;;;;;0.82;0.82;;;;;;;;;;5091211;28;20555;-59
2022/06/10 13:01:15;;;;;;;1.23;1.13;;;;;;;;;;5092453;28;20206;-59
2022/06/10 13:03:43;;;;;;;1.27;1.00;;;;;;;;;;5094930;28;20528;-58
2022/06/10 13:06:29;;;;;;;1.33;1.17;;;;;;;;;;5094801;28;20198;-58
2022/06/10 13:08:59;;;;;;;1.13;1.02;;;;;;;;;;5097261;28;20223;-58
2022/06/10 13:11:31;;;;;;;1.10;1.00;;;;;;;;;;5089663;28;20255;-59
2022/06/10 13:14:18;;;;;;;1.10;0.90;;;;;;;;;;5094535;28;20202;-59
2022/06/10 13:16:48;;;;;;;1.10;1.00;;;;;;;;;;5088978;28;20257;-59
2022/06/10 13:19:33;;;;;;;1.30;1.20;;;;;;;;;;5094306;28;20202;-58
2022/06/10 13:22:01;;;;;;;1.48;0.90;;;;;;;;;;5075236;28;20200;-59
2022/06/10 13:24:30;;;;;;;0.98;0.90;;;;;;;;;;5091002;28;20211;-59
2022/06/10 13:27:14;;;;;;;1.08;1.00;;;;;;;;;;5085776;28;20299;-59
2022/06/10 13:29:49;;;;;;;1.00;1.00;;;;;;;;;;5094467;28;20199;-59
2022/06/10 13:32:16;;;;;;;1.23;0.85;;;;;;;;;;5095556;28;20425;-59
2022/06/10 13:34:44;;;;;;;0.95;0.90;;;;;;;;;;5093670;28;20200;-58
2022/06/10 13:37:15;;;;;;;1.40;1.20;;;;;;;;;;5092836;28;20204;-58
2022/06/10 13:39:45;;;;;;;0.82;0.80;;;;;;;;;;5094420;28;20192;-59
2022/06/10 13:42:19;;;;;;;0.98;0.88;;;;;;;;;;5094791;28;20207;-59
2022/06/10 13:44:49;;;;;;;1.02;1.00;;;;;;;;;;5093529;28;20481;-58
2022/06/10 13:47:22;;;;;;;1.30;0.95;;;;;;;;;;5095330;28;20200;-58
2022/06/10 13:50:11;;;;;;;1.05;0.95;;;;;;;;;;5094644;28;20514;-59
2022/06/10 13:52:39;;;;;;;1.17;1.08;;;;;;;;;;5095106;28;20290;-59
2022/06/10 13:55:26;;;;;;;1.00;1.00;;;;;;;;;;5094122;28;20585;-59
2022/06/10 13:57:57;;;;;;;1.10;1.10;;;;;;;;;;5086782;28;20598;-58
2022/06/10 14:00:27;;;;;;;0.80;0.80;;;;;;;;;;5093708;28;20211;-58
2022/06/10 14:02:55;;;;;;;0.88;0.88;;;;;;;;;;5094189;28;20207;-58
2022/06/10 14:05:23;;;;;;;1.45;0.90;;;;;;;;;;5094342;28;20229;-58
2022/06/10 14:07:51;;;;;;;1.25;1.00;;;;;;;;;;5093896;28;20529;-58
2022/06/10 14:10:22;;;;;;;1.08;0.98;;;;;;;;;;5094131;28;20531;-58
2022/06/10 14:13:00;;;;;;;0.88;0.88;;;;;;;;;;5093859;28;20501;-58
2022/06/10 14:15:29;;;;;;;1.02;1.02;;;;;;;;;;5096137;28;20234;-59
2022/06/10 14:17:57;;;;;;;1.00;0.90;;;;;;;;;;5096479;28;20503;-58
2022/06/10 14:20:29;;;;;;;0.90;0.90;;;;;;;;;;5087265;28;20200;-58
2022/06/10 14:23:04;;;;;;;0.90;0.90;;;;;;;;;;5094982;28;20211;-59
2022/06/10 14:25:33;;;;;;;0.98;0.80;;;;;;;;;;5095624;28;20200;-59
2022/06/10 14:28:14;;;;;;;1.08;1.00;;;;;;;;;;5095329;28;20223;-58
2022/06/10 14:30:49;;;;;;;1.20;1.00;;;;;;;;;;5095760;28;20559;-59
2022/06/10 14:33:18;;;;;;;1.00;1.00;;;;;;;;;;5095566;28;20196;-58
2022/06/10 14:35:47;;;;;;;1.35;0.90;;;;;;;;;;5095803;28;20249;-59
2022/06/10 14:38:23;;;;;;;0.88;0.80;;;;;;;;;;5095810;28;20567;-58
2022/06/10 14:40:55;;;;;;;1.08;0.98;;;;;;;;;;5096548;28;20210;-58
2022/06/10 14:43:23;;;;;;;0.98;0.90;;;;;;;;;;5095838;28;20204;-58
2022/06/10 14:46:02;;;;;;;1.25;1.15;;;;;;;;;;5095250;28;20195;-58
2022/06/10 14:48:31;;;;;;;1.77;1.00;;;;;;;;;;5094645;28;20227;-58
2022/06/10 14:51:07;;;;;;;1.13;0.80;;;;;;;;;;5096038;28;20204;-58
2022/06/10 14:53:36;;;;;;;1.35;1.02;;;;;;;;;;5087565;28;20209;-59
2022/06/10 14:56:11;;;;;;;0.82;0.80;;;;;;;;;;5092227;28;20231;-59
2022/06/10 14:58:39;;;;;;;0.90;0.90;;;;;;;;;;5093759;28;20222;-59
2022/06/10 15:01:06;;;;;;;1.00;0.90;;;;;;;;;;5092772;28;20504;-58
2022/06/10 15:03:34;;;;;;;0.88;0.80;;;;;;;;;;5093295;28;20368;-58
2022/06/10 15:06:20;;;;;;;0.80;0.80;;;;;;;;;;5094035;28;20199;-59
2022/06/10 15:08:48;;;;;;;1.00;0.90;;;;;;;;;;5093690;28;20310;-59
2022/06/10 15:11:17;;;;;;;1.00;0.90;;;;;;;;;;5092537;28;20195;-59
2022/06/10 15:13:46;;;;;;;1.52;1.00;;;;;;;;;;5092885;28;20196;-59
2022/06/10 15:16:15;;;;;;;0.82;0.82;;;;;;;;;;5091937;28;20597;-59
2022/06/10 15:18:43;;;;;;;1.13;0.80;;;;;;;;;;5091053;28;20192;-58